CFV weather

Coffeyville Municipal Airport
Coffeyville, Kansas, United States

Public forecast

Using degrees Fahrenheit for public forecast. Weather courtesy of forecast.io.

Current aviation weather report (METAR) for Coffeyville Municipal Airport

Retrieved 2019/10/16 15:52 UTC (56 minutes ago):

KCFV 161552Z AUTO 33007KT 10SM CLR 11/03 A3024 RMK AO2 SLP242 T01060033

Closest aviation forecast (TAF) to Coffeyville Municipal Airport

Closest forecast is Bartlesville Municipal Airport, 29.0 nm (53.7 km) SW. Retrieved 2019/10/16 12:36 UTC (4 hours ago):

TAF KBVO 161135Z 1612/1712 36006KT P6SM SKC FM170000 00000KT P6SM SKC